sensor_id;sensor_type;location;lat;lon;timestamp;pressure;altitude;pressure_sealevel;temperature;humidity
60974;BME280;46846;51.528;5.076;2023-03-03T00:00:46;101894.91;;;2.10;72.32
60974;BME280;46846;51.528;5.076;2023-03-03T00:03:15;101891.59;;;2.21;72.11
60974;BME280;46846;51.528;5.076;2023-03-03T00:05:41;101893.19;;;2.12;72.21
60974;BME280;46846;51.528;5.076;2023-03-03T00:08:07;101898.38;;;2.08;72.47
60974;BME280;46846;51.528;5.076;2023-03-03T00:10:33;101905.22;;;1.99;72.72
60974;BME280;46846;51.528;5.076;2023-03-03T00:12:59;101900.13;;;2.09;72.26
60974;BME280;46846;51.528;5.076;2023-03-03T00:15:25;101900.03;;;2.02;72.19
60974;BME280;46846;51.528;5.076;2023-03-03T00:17:52;101897.47;;;2.05;72.44
60974;BME280;46846;51.528;5.076;2023-03-03T00:22:56;101899.09;;;2.00;72.62
60974;BME280;46846;51.528;5.076;2023-03-03T00:25:33;101906.19;;;2.04;72.70
60974;BME280;46846;51.528;5.076;2023-03-03T00:30:42;101919.31;;;2.04;72.23
60974;BME280;46846;51.528;5.076;2023-03-03T00:35:53;101919.09;;;1.92;72.92
60974;BME280;46846;51.528;5.076;2023-03-03T00:38:19;101919.16;;;1.97;72.55
60974;BME280;46846;51.528;5.076;2023-03-03T00:40:46;101911.25;;;1.94;72.55
60974;BME280;46846;51.528;5.076;2023-03-03T00:45:45;101915.59;;;1.93;72.43
60974;BME280;46846;51.528;5.076;2023-03-03T00:48:20;101906.88;;;1.94;72.27
60974;BME280;46846;51.528;5.076;2023-03-03T00:50:46;101909.53;;;1.96;72.37
60974;BME280;46846;51.528;5.076;2023-03-03T00:53:16;101908.66;;;1.95;72.49
60974;BME280;46846;51.528;5.076;2023-03-03T00:55:42;101910.44;;;1.96;72.67
60974;BME280;46846;51.528;5.076;2023-03-03T00:58:08;101915.59;;;1.91;72.39
60974;BME280;46846;51.528;5.076;2023-03-03T01:00:34;101908.53;;;1.90;72.91
60974;BME280;46846;51.528;5.076;2023-03-03T01:03:03;101912.09;;;1.93;72.65
60974;BME280;46846;51.528;5.076;2023-03-03T01:05:29;101911.16;;;1.90;72.40
60974;BME280;46846;51.528;5.076;2023-03-03T01:07:55;101913.88;;;1.94;72.35
60974;BME280;46846;51.528;5.076;2023-03-03T01:10:20;101914.63;;;1.86;72.70
60974;BME280;46846;51.528;5.076;2023-03-03T01:12:46;101923.38;;;1.88;72.69
60974;BME280;46846;51.528;5.076;2023-03-03T01:15:12;101927.78;;;1.88;72.34
60974;BME280;46846;51.528;5.076;2023-03-03T01:17:38;101914.50;;;1.80;72.69
60974;BME280;46846;51.528;5.076;2023-03-03T01:20:06;101921.53;;;1.83;72.77
60974;BME280;46846;51.528;5.076;2023-03-03T01:22:32;101918.91;;;1.83;72.19
60974;BME280;46846;51.528;5.076;2023-03-03T01:24:57;101923.13;;;1.74;72.80
60974;BME280;46846;51.528;5.076;2023-03-03T01:27:22;101927.63;;;1.80;72.61
60974;BME280;46846;51.528;5.076;2023-03-03T01:29:48;101921.59;;;1.86;72.40
60974;BME280;46846;51.528;5.076;2023-03-03T01:32:13;101923.34;;;1.85;72.25
60974;BME280;46846;51.528;5.076;2023-03-03T01:34:39;101920.56;;;1.77;72.76
60974;BME280;46846;51.528;5.076;2023-03-03T01:37:05;101918.75;;;1.73;72.87
60974;BME280;46846;51.528;5.076;2023-03-03T01:39:30;101916.09;;;1.72;72.57
60974;BME280;46846;51.528;5.076;2023-03-03T01:41:55;101920.25;;;1.62;72.87
60974;BME280;46846;51.528;5.076;2023-03-03T01:44:21;101926.66;;;1.76;72.63
60974;BME280;46846;51.528;5.076;2023-03-03T01:47:12;101934.53;;;1.76;72.99
60974;BME280;46846;51.528;5.076;2023-03-03T01:49:47;101935.00;;;1.55;73.53
60974;BME280;46846;51.528;5.076;2023-03-03T01:52:23;101934.91;;;1.52;73.31
60974;BME280;46846;51.528;5.076;2023-03-03T01:54:54;101938.59;;;1.60;73.13
60974;BME280;46846;51.528;5.076;2023-03-03T01:57:32;101939.44;;;1.59;73.45
60974;BME280;46846;51.528;5.076;2023-03-03T01:59:58;101935.88;;;1.56;73.36
60974;BME280;46846;51.528;5.076;2023-03-03T02:02:26;101928.00;;;1.56;73.31
60974;BME280;46846;51.528;5.076;2023-03-03T02:04:52;101921.25;;;1.67;73.29
60974;BME280;46846;51.528;5.076;2023-03-03T02:07:19;101922.09;;;1.68;73.11
60974;BME280;46846;51.528;5.076;2023-03-03T02:12:40;101916.94;;;1.71;72.78
60974;BME280;46846;51.528;5.076;2023-03-03T02:17:54;101915.69;;;1.52;73.58
60974;BME280;46846;51.528;5.076;2023-03-03T02:20:57;101919.41;;;1.63;73.10
60974;BME280;46846;51.528;5.076;2023-03-03T02:26:12;101924.59;;;1.60;73.08
60974;BME280;46846;51.528;5.076;2023-03-03T02:28:39;101921.72;;;1.47;73.27
60974;BME280;46846;51.528;5.076;2023-03-03T02:31:09;101916.75;;;1.61;73.28
60974;BME280;46846;51.528;5.076;2023-03-03T02:33:42;101934.91;;;1.52;73.46
60974;BME280;46846;51.528;5.076;2023-03-03T02:36:13;101927.03;;;1.52;73.51
60974;BME280;46846;51.528;5.076;2023-03-03T02:41:17;101925.25;;;1.49;73.23
60974;BME280;46846;51.528;5.076;2023-03-03T02:43:59;101929.63;;;1.49;73.91
60974;BME280;46846;51.528;5.076;2023-03-03T02:46:27;101922.75;;;1.56;73.16
60974;BME280;46846;51.528;5.076;2023-03-03T02:48:53;101929.66;;;1.50;73.04
60974;BME280;46846;51.528;5.076;2023-03-03T02:51:19;101921.94;;;1.58;73.11
60974;BME280;46846;51.528;5.076;2023-03-03T02:53:44;101924.56;;;1.58;73.15
60974;BME280;46846;51.528;5.076;2023-03-03T02:56:09;101925.50;;;1.62;72.77
60974;BME280;46846;51.528;5.076;2023-03-03T02:58:36;101928.94;;;1.59;72.95
60974;BME280;46846;51.528;5.076;2023-03-03T03:01:01;101932.50;;;1.61;72.79
60974;BME280;46846;51.528;5.076;2023-03-03T03:03:27;101922.84;;;1.60;72.88
60974;BME280;46846;51.528;5.076;2023-03-03T03:05:52;101933.00;;;1.43;73.57
60974;BME280;46846;51.528;5.076;2023-03-03T03:08:18;101938.47;;;1.54;73.18
60974;BME280;46846;51.528;5.076;2023-03-03T03:10:43;101937.53;;;1.50;72.99
60974;BME280;46846;51.528;5.076;2023-03-03T03:13:08;101921.88;;;1.57;72.91
60974;BME280;46846;51.528;5.076;2023-03-03T03:15:35;101935.09;;;1.60;72.80
60974;BME280;46846;51.528;5.076;2023-03-03T03:18:00;101940.28;;;1.58;73.21
60974;BME280;46846;51.528;5.076;2023-03-03T03:20:25;101938.34;;;1.49;73.04
60974;BME280;46846;51.528;5.076;2023-03-03T03:22:53;101939.16;;;1.45;73.22
60974;BME280;46846;51.528;5.076;2023-03-03T03:25:18;101937.59;;;1.54;73.11
60974;BME280;46846;51.528;5.076;2023-03-03T03:27:44;101940.22;;;1.54;73.12
60974;BME280;46846;51.528;5.076;2023-03-03T03:30:10;101935.00;;;1.55;72.93
60974;BME280;46846;51.528;5.076;2023-03-03T03:32:35;101938.50;;;1.56;72.97
60974;BME280;46846;51.528;5.076;2023-03-03T03:35:01;101943.72;;;1.54;73.24
60974;BME280;46846;51.528;5.076;2023-03-03T03:37:26;101949.06;;;1.59;73.00
60974;BME280;46846;51.528;5.076;2023-03-03T03:39:52;101948.06;;;1.54;73.03
60974;BME280;46846;51.528;5.076;2023-03-03T03:42:20;101948.78;;;1.46;73.11
60974;BME280;46846;51.528;5.076;2023-03-03T03:44:46;101943.66;;;1.51;73.01
60974;BME280;46846;51.528;5.076;2023-03-03T03:47:11;101949.56;;;1.42;73.68
60974;BME280;46846;51.528;5.076;2023-03-03T03:49:37;101940.97;;;1.49;73.05
60974;BME280;46846;51.528;5.076;2023-03-03T03:52:02;101936.34;;;1.36;73.71
60974;BME280;46846;51.528;5.076;2023-03-03T03:54:28;101945.09;;;1.36;73.38
60974;BME280;46846;51.528;5.076;2023-03-03T03:56:53;101946.13;;;1.43;73.32
60974;BME280;46846;51.528;5.076;2023-03-03T03:59:19;101946.13;;;1.43;73.30
60974;BME280;46846;51.528;5.076;2023-03-03T04:01:45;101943.56;;;1.46;73.30
60974;BME280;46846;51.528;5.076;2023-03-03T04:04:12;101939.69;;;1.30;73.44
60974;BME280;46846;51.528;5.076;2023-03-03T04:06:38;101945.91;;;1.34;73.52
60974;BME280;46846;51.528;5.076;2023-03-03T04:09:03;101948.66;;;1.40;73.42
60974;BME280;46846;51.528;5.076;2023-03-03T04:11:29;101953.94;;;1.42;73.44
60974;BME280;46846;51.528;5.076;2023-03-03T04:13:54;101949.66;;;1.45;73.44
60974;BME280;46846;51.528;5.076;2023-03-03T04:16:20;101951.47;;;1.49;73.27
60974;BME280;46846;51.528;5.076;2023-03-03T04:18:45;101951.50;;;1.51;72.81
60974;BME280;46846;51.528;5.076;2023-03-03T04:21:13;101949.69;;;1.48;73.19
60974;BME280;46846;51.528;5.076;2023-03-03T04:23:38;101956.66;;;1.46;73.28
60974;BME280;46846;51.528;5.076;2023-03-03T04:26:04;101957.34;;;1.38;73.21
60974;BME280;46846;51.528;5.076;2023-03-03T04:28:29;101967.81;;;1.36;73.67
60974;BME280;46846;51.528;5.076;2023-03-03T04:30:55;101973.03;;;1.34;73.59
60974;BME280;46846;51.528;5.076;2023-03-03T04:33:20;101969.63;;;1.39;73.31
60974;BME280;46846;51.528;5.076;2023-03-03T04:35:45;101964.25;;;1.32;73.29
60974;BME280;46846;51.528;5.076;2023-03-03T04:38:11;101966.97;;;1.37;73.23
60974;BME280;46846;51.528;5.076;2023-03-03T04:40:36;101967.72;;;1.31;73.25
60974;BME280;46846;51.528;5.076;2023-03-03T04:43:04;101972.97;;;1.31;73.34
60974;BME280;46846;51.528;5.076;2023-03-03T04:45:29;101972.13;;;1.34;72.68
60974;BME280;46846;51.528;5.076;2023-03-03T04:47:54;101964.16;;;1.29;73.25
60974;BME280;46846;51.528;5.076;2023-03-03T04:50:20;101971.88;;;1.23;73.47
60974;BME280;46846;51.528;5.076;2023-03-03T04:52:45;101978.16;;;1.30;73.45
60974;BME280;46846;51.528;5.076;2023-03-03T04:55:10;101971.16;;;1.29;73.64
60974;BME280;46846;51.528;5.076;2023-03-03T04:57:36;101974.63;;;1.28;73.34
60974;BME280;46846;51.528;5.076;2023-03-03T05:00:02;101981.75;;;1.33;73.31
60974;BME280;46846;51.528;5.076;2023-03-03T05:02:28;101982.69;;;1.37;73.26
60974;BME280;46846;51.528;5.076;2023-03-03T05:04:54;101978.22;;;1.33;72.77
60974;BME280;46846;51.528;5.076;2023-03-03T05:07:19;101985.94;;;1.27;73.42
60974;BME280;46846;51.528;5.076;2023-03-03T05:09:45;101983.22;;;1.20;73.34
60974;BME280;46846;51.528;5.076;2023-03-03T05:12:10;101980.69;;;1.27;73.23
60974;BME280;46846;51.528;5.076;2023-03-03T05:14:35;101983.41;;;1.30;73.13
60974;BME280;46846;51.528;5.076;2023-03-03T05:17:02;101982.38;;;1.23;73.25
60974;BME280;46846;51.528;5.076;2023-03-03T05:19:28;101974.53;;;1.25;73.30
60974;BME280;46846;51.528;5.076;2023-03-03T05:21:54;101983.28;;;1.23;73.37
60974;BME280;46846;51.528;5.076;2023-03-03T05:24:19;101983.41;;;1.30;72.29
60974;BME280;46846;51.528;5.076;2023-03-03T05:26:44;101985.09;;;1.26;72.73
60974;BME280;46846;51.528;5.076;2023-03-03T05:29:10;101984.16;;;1.24;72.79
60974;BME280;46846;51.528;5.076;2023-03-03T05:31:35;101986.44;;;1.10;73.26
60974;BME280;46846;51.528;5.076;2023-03-03T05:34:01;101987.50;;;1.18;73.27
60974;BME280;46846;51.528;5.076;2023-03-03T05:36:26;101987.44;;;1.15;73.60
60974;BME280;46846;51.528;5.076;2023-03-03T05:38:52;101992.59;;;1.11;73.87
60974;BME280;46846;51.528;5.076;2023-03-03T05:41:17;101991.91;;;1.19;73.47
60974;BME280;46846;51.528;5.076;2023-03-03T05:43:43;101988.50;;;1.23;73.10
60974;BME280;46846;51.528;5.076;2023-03-03T05:46:09;101998.84;;;1.17;73.57
60974;BME280;46846;51.528;5.076;2023-03-03T05:48:34;101999.06;;;1.27;73.22
60974;BME280;46846;51.528;5.076;2023-03-03T05:50:59;101993.69;;;1.20;73.17
60974;BME280;46846;51.528;5.076;2023-03-03T05:53:26;102001.63;;;1.23;73.64
60974;BME280;46846;51.528;5.076;2023-03-03T05:55:52;102002.53;;;1.24;73.27
60974;BME280;46846;51.528;5.076;2023-03-03T05:58:17;102003.38;;;1.25;73.44
60974;BME280;46846;51.528;5.076;2023-03-03T06:00:42;102004.34;;;1.28;73.44
60974;BME280;46846;51.528;5.076;2023-03-03T06:03:08;102002.59;;;1.27;73.37
60974;BME280;46846;51.528;5.076;2023-03-03T06:05:33;102002.63;;;1.30;73.51
60974;BME280;46846;51.528;5.076;2023-03-03T06:07:59;102003.47;;;1.28;73.06
60974;BME280;46846;51.528;5.076;2023-03-03T06:10:24;102012.16;;;1.27;73.22
60974;BME280;46846;51.528;5.076;2023-03-03T06:12:50;102008.72;;;1.28;73.67
60974;BME280;46846;51.528;5.076;2023-03-03T06:15:16;102006.22;;;1.32;73.40
60974;BME280;46846;51.528;5.076;2023-03-03T06:17:41;102003.53;;;1.31;73.20
60974;BME280;46846;51.528;5.076;2023-03-03T06:20:07;102009.69;;;1.31;73.55
60974;BME280;46846;51.528;5.076;2023-03-03T06:22:33;102011.47;;;1.34;73.37
60974;BME280;46846;51.528;5.076;2023-03-03T06:24:58;102014.16;;;1.37;73.20
60974;BME280;46846;51.528;5.076;2023-03-03T06:27:23;102015.03;;;1.36;73.25
60974;BME280;46846;51.528;5.076;2023-03-03T06:29:49;102012.31;;;1.31;73.05
60974;BME280;46846;51.528;5.076;2023-03-03T06:32:14;102021.38;;;1.09;73.76
60974;BME280;46846;51.528;5.076;2023-03-03T06:34:39;102026.03;;;1.21;73.54
60974;BME280;46846;51.528;5.076;2023-03-03T06:37:05;102028.75;;;1.26;73.43
60974;BME280;46846;51.528;5.076;2023-03-03T06:39:30;102037.63;;;1.31;73.12
60974;BME280;46846;51.528;5.076;2023-03-03T06:41:56;102037.69;;;1.34;72.01
60974;BME280;46846;51.528;5.076;2023-03-03T06:44:22;102034.09;;;1.29;73.05
60974;BME280;46846;51.528;5.076;2023-03-03T06:46:47;102044.59;;;1.29;73.17
60974;BME280;46846;51.528;5.076;2023-03-03T06:49:12;102045.34;;;1.25;73.14
60974;BME280;46846;51.528;5.076;2023-03-03T06:51:38;102045.09;;;1.14;73.70
60974;BME280;46846;51.528;5.076;2023-03-03T06:54:15;102053.16;;;1.21;73.85
60974;BME280;46846;51.528;5.076;2023-03-03T06:56:45;102052.41;;;1.27;73.37
60974;BME280;46846;51.528;5.076;2023-03-03T06:59:16;102057.72;;;1.30;73.14
60974;BME280;46846;51.528;5.076;2023-03-03T07:01:43;102056.84;;;1.30;73.08
60974;BME280;46846;51.528;5.076;2023-03-03T07:04:30;102058.47;;;1.25;73.22
60974;BME280;46846;51.528;5.076;2023-03-03T07:06:59;102060.31;;;1.29;73.32
60974;BME280;46846;51.528;5.076;2023-03-03T07:09:30;102068.91;;;1.23;73.40
60974;BME280;46846;51.528;5.076;2023-03-03T07:12:00;102062.84;;;1.24;73.47
60974;BME280;46846;51.528;5.076;2023-03-03T07:14:27;102064.63;;;1.27;73.41
60974;BME280;46846;51.528;5.076;2023-03-03T07:16:59;102067.22;;;1.27;73.42
60974;BME280;46846;51.528;5.076;2023-03-03T07:19:33;102062.56;;;1.13;73.61
60974;BME280;46846;51.528;5.076;2023-03-03T07:24:38;102068.25;;;1.32;73.39
60974;BME280;46846;51.528;5.076;2023-03-03T07:29:29;102074.72;;;1.09;73.83
60974;BME280;46846;51.528;5.076;2023-03-03T07:31:56;102070.19;;;1.04;74.32
60974;BME280;46846;51.528;5.076;2023-03-03T07:34:26;102069.53;;;1.13;74.06
60974;BME280;46846;51.528;5.076;2023-03-03T07:37:00;102079.25;;;1.17;73.71
60974;BME280;46846;51.528;5.076;2023-03-03T07:39:42;102082.91;;;1.23;73.59
60974;BME280;46846;51.528;5.076;2023-03-03T07:47:45;102086.56;;;1.30;73.45
60974;BME280;46846;51.528;5.076;2023-03-03T07:50:15;102093.56;;;1.30;73.38
60974;BME280;46846;51.528;5.076;2023-03-03T07:57:50;102101.47;;;1.33;72.83
60974;BME280;46846;51.528;5.076;2023-03-03T08:03:03;102103.94;;;1.27;73.52
60974;BME280;46846;51.528;5.076;2023-03-03T08:16:03;102115.38;;;1.29;73.11
60974;BME280;46846;51.528;5.076;2023-03-03T08:18:47;102114.44;;;1.27;73.11
60974;BME280;46846;51.528;5.076;2023-03-03T08:21:17;102118.06;;;1.32;72.82
60974;BME280;46846;51.528;5.076;2023-03-03T08:23:43;102125.88;;;1.29;72.93
60974;BME280;46846;51.528;5.076;2023-03-03T08:26:09;102123.16;;;1.24;73.07
60974;BME280;46846;51.528;5.076;2023-03-03T08:28:34;102131.91;;;1.26;73.48
60974;BME280;46846;51.528;5.076;2023-03-03T08:31:00;102124.22;;;1.32;73.15
60974;BME280;46846;51.528;5.076;2023-03-03T08:33:25;102143.44;;;1.33;73.34
60974;BME280;46846;51.528;5.076;2023-03-03T08:35:51;102139.00;;;1.30;73.41
60974;BME280;46846;51.528;5.076;2023-03-03T08:38:18;102131.28;;;1.35;72.95
60974;BME280;46846;51.528;5.076;2023-03-03T08:40:45;102131.28;;;1.36;72.87
60974;BME280;46846;51.528;5.076;2023-03-03T08:43:12;102133.16;;;1.41;73.09
60974;BME280;46846;51.528;5.076;2023-03-03T08:45:44;102131.38;;;1.40;73.17
60974;BME280;46846;51.528;5.076;2023-03-03T08:48:10;102130.41;;;1.36;73.18
60974;BME280;46846;51.528;5.076;2023-03-03T08:50:36;102140.88;;;1.34;73.15
60974;BME280;46846;51.528;5.076;2023-03-03T08:53:02;102144.41;;;1.36;73.23
60974;BME280;46846;51.528;5.076;2023-03-03T08:55:28;102132.25;;;1.39;73.25
60974;BME280;46846;51.528;5.076;2023-03-03T08:57:54;102149.75;;;1.40;73.61
60974;BME280;46846;51.528;5.076;2023-03-03T09:00:19;102148.78;;;1.36;73.27
60974;BME280;46846;51.528;5.076;2023-03-03T09:02:45;102157.63;;;1.40;73.22
60974;BME280;46846;51.528;5.076;2023-03-03T09:05:11;102161.19;;;1.43;73.26
60974;BME280;46846;51.528;5.076;2023-03-03T09:07:38;102157.72;;;1.44;73.28
60974;BME280;46846;51.528;5.076;2023-03-03T09:10:04;102167.09;;;1.34;73.61
60974;BME280;46846;51.528;5.076;2023-03-03T09:12:31;102162.75;;;1.35;73.45
60974;BME280;46846;51.528;5.076;2023-03-03T09:14:59;102158.22;;;1.29;73.69
60974;BME280;46846;51.528;5.076;2023-03-03T09:17:34;102157.41;;;1.32;73.50
60974;BME280;46846;51.528;5.076;2023-03-03T09:20:16;102161.81;;;1.33;73.54
60974;BME280;46846;51.528;5.076;2023-03-03T09:22:46;102158.22;;;1.29;73.76
60974;BME280;46846;51.528;5.076;2023-03-03T09:27:48;102169.66;;;1.33;73.50
60974;BME280;46846;51.528;5.076;2023-03-03T09:32:51;102166.75;;;1.20;73.72
60974;BME280;46846;51.528;5.076;2023-03-03T09:35:37;102167.03;;;1.31;74.01
60974;BME280;46846;51.528;5.076;2023-03-03T09:48:49;102173.38;;;1.41;73.31
60974;BME280;46846;51.528;5.076;2023-03-03T10:06:03;102185.72;;;1.45;73.79
60974;BME280;46846;51.528;5.076;2023-03-03T10:11:19;102194.47;;;1.46;73.60
60974;BME280;46846;51.528;5.076;2023-03-03T10:16:34;102186.47;;;1.40;74.56
60974;BME280;46846;51.528;5.076;2023-03-03T10:19:29;102181.34;;;1.46;73.67
60974;BME280;46846;51.528;5.076;2023-03-03T10:22:14;102184.03;;;1.47;73.76
60974;BME280;46846;51.528;5.076;2023-03-03T10:39:31;102187.78;;;1.23;74.68
60974;BME280;46846;51.528;5.076;2023-03-03T10:44:58;102183.00;;;1.41;74.47
60974;BME280;46846;51.528;5.076;2023-03-03T10:50:16;102181.28;;;1.43;74.54
60974;BME280;46846;51.528;5.076;2023-03-03T10:52:50;102177.22;;;1.54;74.34
60974;BME280;46846;51.528;5.076;2023-03-03T10:55:35;102185.19;;;1.60;74.49
60974;BME280;46846;51.528;5.076;2023-03-03T10:58:18;102179.16;;;1.63;74.33
60974;BME280;46846;51.528;5.076;2023-03-03T11:01:20;102173.13;;;1.67;73.91
60974;BME280;46846;51.528;5.076;2023-03-03T11:06:53;102172.34;;;1.71;74.56
60974;BME280;46846;51.528;5.076;2023-03-03T11:23:00;102158.88;;;1.94;74.08
60974;BME280;46846;51.528;5.076;2023-03-03T11:25:52;102160.63;;;1.94;73.92
60974;BME280;46846;51.528;5.076;2023-03-03T11:28:30;102160.72;;;1.98;73.90
60974;BME280;46846;51.528;5.076;2023-03-03T11:31:24;102162.28;;;1.90;74.05
60974;BME280;46846;51.528;5.076;2023-03-03T11:34:07;102157.19;;;1.96;74.17
60974;BME280;46846;51.528;5.076;2023-03-03T11:36:51;102156.84;;;1.81;73.67
60974;BME280;46846;51.528;5.076;2023-03-03T11:39:22;102153.56;;;1.91;74.06
60974;BME280;46846;51.528;5.076;2023-03-03T11:44:55;102158.25;;;2.04;73.56
60974;BME280;46846;51.528;5.076;2023-03-03T11:49:59;102163.50;;;2.04;73.33
60974;BME280;46846;51.528;5.076;2023-03-03T11:57:38;102148.59;;;2.03;73.58
60974;BME280;46846;51.528;5.076;2023-03-03T12:00:17;102148.38;;;1.94;73.37
60974;BME280;46846;51.528;5.076;2023-03-03T12:02:57;102147.56;;;1.97;73.32
60974;BME280;46846;51.528;5.076;2023-03-03T12:05:54;102137.41;;;2.12;72.19
60974;BME280;46846;51.528;5.076;2023-03-03T12:17:00;102131.50;;;2.24;72.21
60974;BME280;46846;51.528;5.076;2023-03-03T12:22:30;102131.50;;;2.24;71.89
60974;BME280;46846;51.528;5.076;2023-03-03T12:25:02;102119.22;;;2.22;72.19
60974;BME280;46846;51.528;5.076;2023-03-03T12:27:48;102117.47;;;2.22;71.71
60974;BME280;46846;51.528;5.076;2023-03-03T12:44:23;102115.06;;;2.33;71.78
60974;BME280;46846;51.528;5.076;2023-03-03T12:46:58;102124.88;;;2.42;71.39
60974;BME280;46846;51.528;5.076;2023-03-03T12:49:38;102110.13;;;2.47;71.94
60974;BME280;46846;51.528;5.076;2023-03-03T12:55:10;102103.78;;;2.39;72.78
60974;BME280;46846;51.528;5.076;2023-03-03T12:57:50;102101.06;;;2.34;72.67
60974;BME280;46846;51.528;5.076;2023-03-03T13:00:26;102110.75;;;2.37;73.17
60974;BME280;46846;51.528;5.076;2023-03-03T13:03:31;102106.50;;;2.42;72.53
60974;BME280;46846;51.528;5.076;2023-03-03T13:06:10;102106.72;;;2.54;71.87
60974;BME280;46846;51.528;5.076;2023-03-03T13:08:53;102092.88;;;2.63;71.20
60974;BME280;46846;51.528;5.076;2023-03-03T13:14:04;102100.03;;;2.70;70.92
60974;BME280;46846;51.528;5.076;2023-03-03T13:16:43;102094.00;;;2.76;70.12
60974;BME280;46846;51.528;5.076;2023-03-03T13:19:23;102094.03;;;2.78;71.00
60974;BME280;46846;51.528;5.076;2023-03-03T13:21:58;102098.94;;;2.59;72.17
60974;BME280;46846;51.528;5.076;2023-03-03T13:24:32;102096.44;;;2.67;72.24
60974;BME280;46846;51.528;5.076;2023-03-03T13:29:59;102098.50;;;2.82;71.81
60974;BME280;46846;51.528;5.076;2023-03-03T13:35:29;102096.72;;;2.81;71.74
60974;BME280;46846;51.528;5.076;2023-03-03T13:37:56;102097.31;;;2.66;73.91
60974;BME280;46846;51.528;5.076;2023-03-03T13:40:44;102092.38;;;2.83;72.25
60974;BME280;46846;51.528;5.076;2023-03-03T13:43:25;102091.47;;;2.82;71.90
60974;BME280;46846;51.528;5.076;2023-03-03T13:48:54;102091.63;;;2.90;71.51
60974;BME280;46846;51.528;5.076;2023-03-03T14:05:36;102076.13;;;3.06;71.00
60974;BME280;46846;51.528;5.076;2023-03-03T14:08:18;102079.78;;;3.16;70.45
60974;BME280;46846;51.528;5.076;2023-03-03T14:10:58;102079.56;;;3.03;72.99
60974;BME280;46846;51.528;5.076;2023-03-03T14:13:43;102084.13;;;3.13;70.54
60974;BME280;46846;51.528;5.076;2023-03-03T14:16:49;102075.47;;;3.19;71.04
60974;BME280;46846;51.528;5.076;2023-03-03T14:21:44;102078.91;;;3.17;71.02
60974;BME280;46846;51.528;5.076;2023-03-03T14:24:19;102074.66;;;3.25;70.84
60974;BME280;46846;51.528;5.076;2023-03-03T14:29:29;102072.91;;;3.24;70.70
60974;BME280;46846;51.528;5.076;2023-03-03T14:31:59;102069.25;;;3.16;72.44
60974;BME280;46846;51.528;5.076;2023-03-03T14:34:38;102071.03;;;3.17;72.85
60974;BME280;46846;51.528;5.076;2023-03-03T14:37:24;102062.41;;;3.27;70.20
60974;BME280;46846;51.528;5.076;2023-03-03T14:40:00;102064.31;;;3.36;68.56
60974;BME280;46846;51.528;5.076;2023-03-03T14:42:34;102061.81;;;3.45;68.07
60974;BME280;46846;51.528;5.076;2023-03-03T14:45:16;102059.25;;;3.48;68.57
60974;BME280;46846;51.528;5.076;2023-03-03T14:47:44;102053.13;;;3.51;68.47
60974;BME280;46846;51.528;5.076;2023-03-03T14:53:20;102056.69;;;3.53;67.88
60974;BME280;46846;51.528;5.076;2023-03-03T14:55:49;102057.25;;;3.33;71.17
60974;BME280;46846;51.528;5.076;2023-03-03T14:58:36;102055.59;;;3.38;70.09
60974;BME280;46846;51.528;5.076;2023-03-03T15:03:47;102046.91;;;3.47;68.23
60974;BME280;46846;51.528;5.076;2023-03-03T15:06:34;102044.38;;;3.53;68.11
60974;BME280;46846;51.528;5.076;2023-03-03T15:11:52;102035.66;;;3.56;68.41
60974;BME280;46846;51.528;5.076;2023-03-03T15:14:22;102034.81;;;3.59;68.08
60974;BME280;46846;51.528;5.076;2023-03-03T15:16:50;102029.66;;;3.65;67.18
60974;BME280;46846;51.528;5.076;2023-03-03T15:25:00;102021.78;;;3.68;67.73
60974;BME280;46846;51.528;5.076;2023-03-03T15:27:40;102023.44;;;3.63;69.34
60974;BME280;46846;51.528;5.076;2023-03-03T15:40:51;102014.88;;;3.75;66.14
60974;BME280;46846;51.528;5.076;2023-03-03T15:49:05;102016.72;;;3.83;65.28
60974;BME280;46846;51.528;5.076;2023-03-03T15:56:55;102010.66;;;3.89;64.77
60974;BME280;46846;51.528;5.076;2023-03-03T16:05:23;102004.53;;;3.93;64.31
60974;BME280;46846;51.528;5.076;2023-03-03T16:08:00;102006.22;;;3.87;66.13
60974;BME280;46846;51.528;5.076;2023-03-03T16:10:41;102015.03;;;3.89;68.98
60974;BME280;46846;51.528;5.076;2023-03-03T16:13:35;102015.81;;;3.81;70.73
60974;BME280;46846;51.528;5.076;2023-03-03T16:22:10;102008.78;;;3.80;68.86
60974;BME280;46846;51.528;5.076;2023-03-03T16:30:46;102019.28;;;3.79;71.52
60974;BME280;46846;51.528;5.076;2023-03-03T16:33:37;102016.72;;;3.83;67.39
60974;BME280;46846;51.528;5.076;2023-03-03T16:39:13;102022.06;;;3.90;69.15
60974;BME280;46846;51.528;5.076;2023-03-03T16:41:57;102030.88;;;3.93;67.15
60974;BME280;46846;51.528;5.076;2023-03-03T17:06:48;102042.38;;;3.99;70.01
60974;BME280;46846;51.528;5.076;2023-03-03T17:17:22;102049.50;;;4.09;67.57
60974;BME280;46846;51.528;5.076;2023-03-03T17:20:01;102060.00;;;4.07;67.94
60974;BME280;46846;51.528;5.076;2023-03-03T17:25:16;102059.09;;;4.04;66.48
60974;BME280;46846;51.528;5.076;2023-03-03T17:28:06;102064.34;;;4.04;67.12
60974;BME280;46846;51.528;5.076;2023-03-03T17:30:50;102061.72;;;4.02;68.34
60974;BME280;46846;51.528;5.076;2023-03-03T17:44:49;102079.25;;;3.99;70.11
60974;BME280;46846;51.528;5.076;2023-03-03T17:52:54;102085.28;;;3.91;70.08
60974;BME280;46846;51.528;5.076;2023-03-03T18:09:23;102095.91;;;3.97;67.82
60974;BME280;46846;51.528;5.076;2023-03-03T18:14:43;102112.50;;;3.92;70.36
60974;BME280;46846;51.528;5.076;2023-03-03T18:17:18;102112.50;;;3.92;70.63
60974;BME280;46846;51.528;5.076;2023-03-03T18:19:54;102113.22;;;3.81;71.97
60974;BME280;46846;51.528;5.076;2023-03-03T18:22:49;102110.69;;;3.88;71.51
60974;BME280;46846;51.528;5.076;2023-03-03T18:25:51;102106.41;;;3.96;68.47
60974;BME280;46846;51.528;5.076;2023-03-03T18:28:21;102113.41;;;3.95;70.26
60974;BME280;46846;51.528;5.076;2023-03-03T18:30:58;102115.19;;;3.95;71.60
60974;BME280;46846;51.528;5.076;2023-03-03T18:33:43;102117.84;;;3.98;69.95
60974;BME280;46846;51.528;5.076;2023-03-03T18:38:53;102123.16;;;4.03;69.56